Time;durP1;ratioP1;P1;durP2;ratioP2;P2;SDS_P1;SDS_P2;PMS_P1;PMS_P2;Temp;Humidity;BMP_temperature;BMP_pressure;BME280_temperature;BME280_humidity;BME280_pressure;Samples;Min_cycle;Max_cycle;Signal;HPM_P1;HPM_P2
2024/03/13 00:02:35;;;;;;;;;29.50;20.75;;;;;6.09;94.62;100280.90;112439;243;161645;-50
2024/03/13 00:05:11;;;;;;;;;32.67;23.67;;;;;6.07;94.67;100278.98;112669;243;40509;-53
2024/03/13 00:07:48;;;;;;;;;25.00;18.25;;;;;6.07;94.75;100281.14;112623;241;161698;-51
2024/03/13 00:10:28;;;;;;;;;25.00;16.50;;;;;6.05;94.68;100278.63;112542;243;39815;-52
2024/03/13 00:13:05;;;;;;;;;38.25;24.50;;;;;6.12;94.68;100282.58;112830;243;39714;-50
2024/03/13 00:15:42;;;;;;;;;22.50;17.25;;;;;6.07;94.81;100284.70;112340;241;161701;-50
2024/03/13 00:18:20;;;;;;;;;26.00;19.25;;;;;6.08;94.72;100284.52;112613;244;40358;-50
2024/03/13 00:20:57;;;;;;;;;23.67;17.33;;;;;6.05;94.78;100288.11;112316;241;161734;-50
2024/03/13 00:23:34;;;;;;;;;37.00;27.00;;;;;5.96;94.84;100288.51;112577;244;40315;-50
2024/03/13 00:26:17;;;;;;;;;33.00;23.25;;;;;6.03;94.73;100284.78;112409;241;161654;-50
2024/03/13 00:28:53;;;;;;;;;22.50;14.75;;;;;6.04;94.58;100283.77;112517;243;42563;-50
2024/03/13 00:31:31;;;;;;;;;22.75;18.25;;;;;6.02;94.62;100283.40;112729;241;161631;-49
2024/03/13 00:34:15;;;;;;;;;27.33;20.00;;;;;6.02;94.66;100282.36;112614;243;39791;-52
2024/03/13 00:36:57;;;;;;;;;27.00;21.00;;;;;6.03;94.75;100281.58;112863;243;39516;-52
2024/03/13 00:39:34;;;;;;;;;27.00;19.00;;;;;5.99;94.91;100282.11;112441;241;161825;-54
2024/03/13 00:42:21;;;;;;;;;34.00;26.00;;;;;5.98;94.99;100278.84;112518;244;39968;-54
2024/03/13 00:44:59;;;;;;;;;31.50;22.75;;;;;5.97;95.03;100284.00;112298;244;161507;-50
2024/03/13 00:47:37;;;;;;;;;35.00;24.00;;;;;6.03;94.83;100276.20;112472;244;39521;-49
2024/03/13 00:50:19;;;;;;;;;28.00;21.25;;;;;6.05;94.87;100279.13;112289;242;161764;-52
2024/03/13 00:52:56;;;;;;;;;33.50;24.50;;;;;6.04;94.82;100279.25;112410;244;39389;-52
2024/03/13 00:55:32;;;;;;;;;41.00;29.33;;;;;6.02;94.99;100277.41;112329;241;161757;-52
2024/03/13 00:58:08;;;;;;;;;36.50;28.00;;;;;6.06;94.82;100276.89;112544;243;39377;-50
2024/03/13 01:00:48;;;;;;;;;43.25;31.00;;;;;6.04;94.78;100278.42;112814;243;40034;-49
2024/03/13 01:03:32;;;;;;;;;25.50;18.00;;;;;6.01;94.85;100279.22;112462;243;160914;-52
2024/03/13 01:06:21;;;;;;;;;32.75;23.00;;;;;5.98;94.84;100279.77;112779;243;40087;-53
2024/03/13 01:09:00;;;;;;;;;40.33;28.00;;;;;5.99;94.69;100277.33;112516;241;161654;-54
2024/03/13 01:11:38;;;;;;;;;38.00;26.33;;;;;5.97;94.65;100282.21;112763;242;40194;-54
2024/03/13 01:14:24;;;;;;;;;37.50;26.50;;;;;5.94;94.59;100279.22;112633;242;161770;-51
2024/03/13 01:17:03;;;;;;;;;38.00;26.00;;;;;5.96;94.62;100277.48;112678;243;40351;-51
2024/03/13 01:19:47;;;;;;;;;32.25;23.00;;;;;5.96;94.67;100277.80;112650;241;161893;-54
2024/03/13 01:22:28;;;;;;;;;35.00;25.00;;;;;5.97;94.64;100276.83;112573;243;40262;-53
2024/03/13 01:25:06;;;;;;;;;33.00;25.00;;;;;5.99;94.62;100279.14;112803;243;40213;-50
2024/03/13 01:27:50;;;;;;;;;39.00;27.75;;;;;5.99;94.69;100277.52;112297;241;161550;-50
2024/03/13 01:30:29;;;;;;;;;36.00;25.50;;;;;5.96;94.73;100278.33;112753;243;39960;-52
2024/03/13 01:33:08;;;;;;;;;37.00;26.67;;;;;5.97;94.54;100278.65;112411;241;160947;-50
2024/03/13 01:35:53;;;;;;;;;30.67;21.33;;;;;5.92;94.72;100282.51;112769;243;39401;-49
2024/03/13 01:38:35;;;;;;;;;30.25;21.75;;;;;5.90;94.69;100274.32;112490;241;161900;-52
2024/03/13 01:56:04;;;;;;;;;32.00;21.00;;;;;5.87;94.88;100273.56;112612;241;161977;-52
2024/03/13 01:58:51;;;;;;;;;33.33;25.00;;;;;5.86;94.79;100271.48;112653;243;39291;-49
2024/03/13 02:04:26;;;;;;;;;36.00;26.50;;;;;5.87;94.77;100276.11;112541;243;39866;-53
2024/03/13 02:07:08;;;;;;;;;31.50;24.00;;;;;5.82;95.01;100271.42;112792;243;40801;-54
2024/03/13 02:09:46;;;;;;;;;21.67;16.00;;;;;5.80;94.91;100274.48;112345;241;161119;-52
2024/03/13 02:12:24;;;;;;;;;25.50;18.50;;;;;5.72;94.96;100272.84;112797;243;40505;-52
2024/03/13 02:15:05;;;;;;;;;26.00;20.00;;;;;5.65;94.98;100274.33;112400;241;161662;-50
2024/03/13 02:17:45;;;;;;;;;39.00;26.33;;;;;5.66;95.15;100271.59;112396;244;41452;-50
2024/03/13 02:20:24;;;;;;;;;30.50;21.00;;;;;5.64;95.12;100273.88;112327;241;162913;-52
2024/03/13 02:23:04;;;;;;;;;26.50;19.00;;;;;5.55;95.24;100273.54;112454;244;39631;-50
2024/03/13 02:25:34;;;;;;;;;29.33;20.67;;;;;5.57;95.36;100282.19;112325;241;161718;-50
2024/03/13 02:28:05;;;;;;;;;28.00;20.25;;;;;5.60;95.14;100279.36;112205;243;39726;-51
2024/03/13 02:30:37;;;;;;;;;25.25;20.25;;;;;5.62;95.28;100277.30;112472;243;39919;-50
2024/03/13 02:33:07;;;;;;;;;26.50;20.75;;;;;5.66;95.19;100279.72;112081;243;161273;-53
2024/03/13 02:35:40;;;;;;;;;26.00;20.00;;;;;5.67;95.39;100283.41;112447;243;39403;-53
2024/03/13 02:38:12;;;;;;;;;37.75;27.25;;;;;5.70;95.22;100286.93;112332;243;161679;-53
2024/03/13 02:40:45;;;;;;;;;26.75;20.00;;;;;5.77;95.09;100282.47;112343;243;39371;-53
2024/03/13 02:43:20;;;;;;;;;34.00;25.00;;;;;5.75;95.09;100285.72;112373;242;160900;-50
2024/03/13 02:45:52;;;;;;;;;33.00;25.00;;;;;5.71;94.94;100285.44;112277;243;40164;-50
2024/03/13 02:48:23;;;;;;;;;34.00;23.50;;;;;5.70;95.08;100289.99;112478;242;39007;-50
2024/03/13 02:50:53;;;;;;;;;31.50;23.50;;;;;5.61;95.17;100287.10;112127;243;161378;-50
2024/03/13 02:53:24;;;;;;;;;30.25;19.50;;;;;5.58;95.21;100285.04;112466;243;39534;-53
2024/03/13 02:56:01;;;;;;;;;30.00;20.00;;;;;5.51;95.30;100287.21;112309;243;163424;-53
2024/03/13 02:58:31;;;;;;;;;28.67;21.00;;;;;5.49;95.50;100290.65;112420;243;41077;-53
2024/03/13 03:01:06;;;;;;;;;25.00;18.25;;;;;5.46;95.52;100288.62;112520;243;39315;-53
2024/03/13 03:03:39;;;;;;;;;30.00;21.00;;;;;5.46;95.40;100293.63;112075;243;161849;-50
2024/03/13 03:06:14;;;;;;;;;28.75;19.50;;;;;5.43;95.62;100297.05;112500;243;40829;-49
2024/03/13 03:08:46;;;;;;;;;25.00;18.00;;;;;5.49;95.45;100294.94;112110;243;162280;-53
2024/03/13 03:11:19;;;;;;;;;24.25;18.25;;;;;5.55;95.37;100297.55;112387;243;39912;-53
2024/03/13 03:13:51;;;;;;;;;24.00;20.00;;;;;5.58;95.40;100296.70;112284;244;161290;-51
2024/03/13 03:16:25;;;;;;;;;33.00;24.00;;;;;5.60;95.21;100298.75;112238;243;39525;-52
2024/03/13 03:18:54;;;;;;;;;26.00;19.00;;;;;5.60;95.26;100303.47;112475;243;40578;-54
2024/03/13 03:21:25;;;;;;;;;31.25;23.50;;;;;5.60;95.32;100303.97;112263;243;160517;-49
2024/03/13 03:24:00;;;;;;;;;30.75;24.00;;;;;5.59;95.35;100303.92;112496;243;39682;-50
2024/03/13 03:26:35;;;;;;;;;31.00;23.00;;;;;5.55;95.37;100306.70;112156;244;160676;-49
2024/03/13 03:29:08;;;;;;;;;19.00;14.67;;;;;5.44;95.36;100307.23;112329;243;39600;-49
2024/03/13 03:31:40;;;;;;;;;28.00;21.00;;;;;5.42;95.44;100304.85;112283;241;161939;-50
2024/03/13 03:34:16;;;;;;;;;19.00;13.67;;;;;5.44;95.42;100304.76;112285;243;40168;-50
2024/03/13 03:36:46;;;;;;;;;24.00;18.00;;;;;5.47;95.34;100302.83;112472;243;39810;-50
2024/03/13 03:39:24;;;;;;;;;26.00;19.00;;;;;5.43;95.48;100302.77;112086;243;160991;-50
2024/03/13 03:41:58;;;;;;;;;24.00;19.00;;;;;5.46;95.45;100306.65;112473;243;39987;-50
2024/03/13 03:44:29;;;;;;;;;21.00;16.00;;;;;5.44;95.32;100307.23;112241;244;161373;-53
2024/03/13 03:47:02;;;;;;;;;23.25;17.25;;;;;5.36;95.56;100304.23;112396;243;40691;-53
2024/03/13 03:49:36;;;;;;;;;23.33;15.67;;;;;5.38;95.48;100306.45;112097;241;162697;-52
2024/03/13 03:52:11;;;;;;;;;41.75;28.75;;;;;5.39;95.41;100305.60;112249;242;39726;-52
2024/03/13 03:54:43;;;;;;;;;26.00;20.00;;;;;5.44;95.41;100307.08;112503;243;39771;-50
2024/03/13 03:57:14;;;;;;;;;23.33;18.00;;;;;5.49;95.34;100306.33;112045;244;161007;-50
2024/03/13 03:59:46;;;;;;;;;25.00;17.75;;;;;5.44;95.28;100311.55;112483;243;40768;-50
2024/03/13 04:02:16;;;;;;;;;23.33;16.67;;;;;5.37;95.42;100312.39;112209;244;161271;-50
2024/03/13 04:04:51;;;;;;;;;20.00;14.50;;;;;5.32;95.56;100312.70;112332;243;39058;-49
2024/03/13 04:07:21;;;;;;;;;29.00;22.75;;;;;5.32;95.64;100312.23;112296;241;163489;-50
2024/03/13 04:09:52;;;;;;;;;40.75;28.00;;;;;5.31;95.69;100315.90;112161;244;40007;-52
2024/03/13 04:12:25;;;;;;;;;29.25;22.25;;;;;5.31;95.69;100320.02;112255;244;40926;-52
2024/03/13 04:14:57;;;;;;;;;32.25;23.00;;;;;5.35;95.70;100319.27;112204;243;162660;-50
2024/03/13 04:17:27;;;;;;;;;36.50;25.25;;;;;5.29;95.91;100321.64;112431;242;41548;-51
2024/03/13 04:20:00;;;;;;;;;45.50;31.00;;;;;5.27;95.95;100320.35;112258;244;162838;-49
2024/03/13 04:22:33;;;;;;;;;37.00;27.00;;;;;5.32;95.89;100319.95;112158;244;41204;-50
2024/03/13 04:25:04;;;;;;;;;31.25;22.50;;;;;5.28;96.05;100323.54;112132;244;39736;-50
2024/03/13 04:27:37;;;;;;;;;27.50;21.00;;;;;5.29;95.88;100326.86;112004;244;161107;-49
2024/03/13 04:30:08;;;;;;;;;53.00;36.00;;;;;5.31;95.93;100327.27;112159;244;39843;-52
2024/03/13 04:32:38;;;;;;;;;55.00;34.67;;;;;5.35;95.95;100324.44;112072;244;160536;-51
2024/03/13 04:35:11;;;;;;;;;45.75;31.00;;;;;5.30;96.03;100327.39;112191;244;40112;-50
2024/03/13 04:37:41;;;;;;;;;57.00;39.50;;;;;5.25;96.00;100328.34;112157;242;161848;-49
2024/03/13 04:40:18;;;;;;;;;86.00;56.50;;;;;5.27;95.88;100326.36;112187;244;40444;-49
2024/03/13 04:42:52;;;;;;;;;84.67;56.00;;;;;5.28;95.84;100325.48;112203;244;39306;-50
2024/03/13 04:45:28;;;;;;;;;41.00;30.50;;;;;5.29;95.77;100326.83;112199;243;161876;-49
2024/03/13 04:48:00;;;;;;;;;59.75;40.25;;;;;5.27;95.74;100331.27;112474;243;41061;-51
2024/03/13 04:50:34;;;;;;;;;24.00;18.67;;;;;5.31;95.79;100333.38;112179;243;162287;-51
2024/03/13 04:53:07;;;;;;;;;25.00;20.67;;;;;5.32;95.78;100334.75;112346;244;39216;-52
2024/03/13 04:55:39;;;;;;;;;27.00;19.00;;;;;5.30;95.83;100337.27;112298;241;161837;-52
2024/03/13 04:58:15;;;;;;;;;27.67;20.00;;;;;5.21;96.03;100337.65;112169;244;39631;-52
2024/03/13 05:00:49;;;;;;;;;29.33;20.67;;;;;5.22;96.11;100343.62;112226;244;40417;-52
2024/03/13 05:03:20;;;;;;;;;20.00;16.00;;;;;5.30;95.90;100344.91;112075;244;161097;-52
2024/03/13 05:05:51;;;;;;;;;28.25;20.00;;;;;5.27;95.93;100347.23;112405;244;40765;-51
2024/03/13 05:08:22;;;;;;;;;30.50;22.00;;;;;5.19;96.07;100347.74;112161;244;160873;-49
2024/03/13 05:10:56;;;;;;;;;28.00;21.00;;;;;5.21;95.95;100349.09;112188;244;39303;-50
2024/03/13 05:13:27;;;;;;;;;26.50;19.25;;;;;5.26;95.76;100354.25;112131;243;161428;-53
2024/03/13 05:15:58;;;;;;;;;27.25;21.00;;;;;5.30;95.78;100355.45;112205;244;40478;-53
2024/03/13 05:18:29;;;;;;;;;26.25;21.00;;;;;5.32;95.62;100354.36;112186;244;41118;-53
2024/03/13 05:21:04;;;;;;;;;27.00;20.00;;;;;5.27;95.69;100362.36;111987;245;161757;-53
2024/03/13 05:23:35;;;;;;;;;28.00;20.00;;;;;5.29;95.62;100367.88;112142;244;41332;-52
2024/03/13 05:26:11;;;;;;;;;27.75;21.50;;;;;5.31;95.73;100370.17;112101;245;161335;-53
2024/03/13 05:28:42;;;;;;;;;36.00;25.33;;;;;5.29;95.82;100372.54;112226;244;40105;-51
2024/03/13 05:31:14;;;;;;;;;28.75;21.50;;;;;5.29;95.91;100376.85;112206;244;39358;-52
2024/03/13 05:33:48;;;;;;;;;36.33;25.00;;;;;5.21;96.12;100381.20;112207;243;39908;-52
2024/03/13 05:36:18;;;;;;;;;30.25;21.00;;;;;5.23;96.13;100380.48;112443;243;40985;-53
2024/03/13 05:38:49;;;;;;;;;26.00;19.33;;;;;5.22;96.03;100384.70;112260;244;161381;-52
2024/03/13 05:41:21;;;;;;;;;20.33;16.00;;;;;5.23;96.14;100389.20;112201;243;39391;-52
2024/03/13 05:43:51;;;;;;;;;33.00;22.50;;;;;5.26;96.09;100388.14;112326;243;161445;-52
2024/03/13 05:46:23;;;;;;;;;32.25;23.25;;;;;5.27;96.09;100387.17;112238;243;39383;-52
2024/03/13 05:48:58;;;;;;;;;28.00;20.75;;;;;5.26;96.25;100393.33;112454;242;40633;-50
2024/03/13 05:51:28;;;;;;;;;21.00;14.33;;;;;5.23;96.08;100390.97;112033;244;161167;-50
2024/03/13 05:54:02;;;;;;;;;24.50;17.00;;;;;5.21;96.18;100392.51;112215;244;39780;-49
2024/03/13 05:56:34;;;;;;;;;23.00;18.00;;;;;5.24;96.07;100393.04;112060;244;161015;-49
2024/03/13 05:59:07;;;;;;;;;32.00;22.00;;;;;5.25;96.13;100393.69;112157;244;39053;-53
2024/03/13 06:01:37;;;;;;;;;27.00;20.00;;;;;5.23;96.23;100396.92;112109;242;161651;-53
2024/03/13 06:04:10;;;;;;;;;28.75;18.00;;;;;5.22;96.26;100396.48;112096;244;39176;-52
2024/03/13 06:06:40;;;;;;;;;25.25;19.50;;;;;5.21;96.57;100396.60;112080;244;39456;-52
2024/03/13 06:09:11;;;;;;;;;28.25;19.50;;;;;5.22;96.54;100401.96;112118;243;161585;-49
2024/03/13 06:11:46;;;;;;;;;27.00;20.25;;;;;5.22;96.45;100403.84;112245;244;39175;-50
2024/03/13 06:14:18;;;;;;;;;28.00;21.00;;;;;5.25;96.48;100404.36;112216;243;161375;-50
2024/03/13 06:16:50;;;;;;;;;27.67;21.33;;;;;5.26;96.49;100408.39;112339;243;41002;-50
2024/03/13 06:19:23;;;;;;;;;28.75;21.50;;;;;5.28;96.61;100411.05;112321;243;160892;-49
2024/03/13 06:21:55;;;;;;;;;29.00;20.67;;;;;5.28;96.58;100411.73;112098;244;40384;-49
2024/03/13 06:24:32;;;;;;;;;39.33;29.00;;;;;5.29;96.72;100411.23;112201;244;39683;-53
2024/03/13 06:27:08;;;;;;;;;29.00;20.00;;;;;5.32;96.61;100410.59;112061;244;160956;-53
2024/03/13 06:32:29;;;;;;;;;26.00;20.00;;;;;5.33;96.68;100415.11;112201;243;162404;-53
2024/03/13 06:35:04;;;;;;;;;31.00;22.00;;;;;5.33;96.65;100417.05;112328;243;39596;-52
2024/03/13 06:37:52;;;;;;;;;31.00;23.00;;;;;5.28;96.80;100422.41;112258;241;162971;-52
2024/03/13 06:40:22;;;;;;;;;29.00;21.67;;;;;5.24;96.93;100425.52;111895;243;497590;-51
2024/03/13 06:42:55;;;;;;;;;22.50;18.25;;;;;5.27;96.88;100429.70;112440;243;39832;-50
2024/03/13 06:45:25;;;;;;;;;30.00;21.25;;;;;5.32;96.78;100428.60;112031;244;161336;-49
2024/03/13 06:47:58;;;;;;;;;27.75;19.50;;;;;5.33;96.73;100434.42;112120;244;39241;-49
2024/03/13 06:50:35;;;;;;;;;29.33;20.67;;;;;5.30;96.69;100436.73;112084;243;161552;-49
2024/03/13 06:53:07;;;;;;;;;27.00;20.00;;;;;5.32;96.81;100437.36;112123;244;40123;-50
2024/03/13 06:55:37;;;;;;;;;29.00;21.00;;;;;5.41;96.64;100440.11;112071;242;161037;-49
2024/03/13 06:58:07;;;;;;;;;29.00;21.00;;;;;5.44;96.42;100441.08;112148;244;41257;-53
2024/03/13 07:00:37;;;;;;;;;29.00;20.00;;;;;5.43;96.53;100444.85;112143;244;40053;-53
2024/03/13 07:03:09;;;;;;;;;31.00;22.75;;;;;5.48;96.39;100443.13;112052;243;161076;-49
2024/03/13 07:05:41;;;;;;;;;26.00;20.00;;;;;5.47;96.44;100444.30;112500;243;39470;-50
2024/03/13 07:08:12;;;;;;;;;27.33;20.00;;;;;5.43;96.53;100447.36;112207;244;162536;-52
2024/03/13 07:10:47;;;;;;;;;23.00;16.33;;;;;5.41;96.60;100450.09;112304;243;39719;-52
2024/03/13 07:13:19;;;;;;;;;25.00;17.00;;;;;5.40;96.57;100448.08;112484;243;39908;-53
2024/03/13 07:15:52;;;;;;;;;28.25;19.00;;;;;5.43;96.52;100450.10;112451;243;39867;-53
2024/03/13 07:18:22;;;;;;;;;25.33;20.00;;;;;5.41;96.75;100454.95;112486;243;39324;-49
2024/03/13 07:20:55;;;;;;;;;27.75;20.00;;;;;5.43;96.84;100457.23;112241;243;162408;-49
2024/03/13 07:23:28;;;;;;;;;28.00;21.00;;;;;5.44;96.91;100459.09;112430;243;41279;-53
2024/03/13 07:25:59;;;;;;;;;29.00;22.00;;;;;5.41;96.79;100462.52;112210;243;161948;-54
2024/03/13 07:28:37;;;;;;;;;25.33;20.00;;;;;5.49;96.59;100463.89;112266;243;40228;-51
2024/03/13 07:31:09;;;;;;;;;32.00;23.75;;;;;5.52;96.62;100467.49;112441;243;39739;-50
2024/03/13 07:33:43;;;;;;;;;34.25;24.00;;;;;5.56;96.72;100463.55;112342;243;161333;-50
2024/03/13 07:36:16;;;;;;;;;18.25;13.00;;;;;5.59;96.52;100464.14;112178;243;39672;-50
2024/03/13 07:38:46;;;;;;;;;26.00;18.00;;;;;5.57;96.53;100471.69;112164;244;160552;-53
2024/03/13 07:41:19;;;;;;;;;20.75;18.00;;;;;5.47;96.70;100470.52;112388;243;40098;-53
2024/03/13 07:43:50;;;;;;;;;28.00;22.00;;;;;5.44;96.88;100470.21;112272;241;161290;-54
2024/03/13 07:46:20;;;;;;;;;30.00;22.00;;;;;5.43;96.82;100474.52;112297;242;39366;-54
2024/03/13 07:48:50;;;;;;;;;31.33;21.33;;;;;5.35;97.04;100476.86;112501;243;39832;-50
2024/03/13 07:51:25;;;;;;;;;23.00;16.00;;;;;5.32;97.12;100477.39;112235;243;161669;-51
2024/03/13 07:53:56;;;;;;;;;20.67;17.33;;;;;5.36;97.09;100476.84;112328;243;42711;-53
2024/03/13 07:56:28;;;;;;;;;25.67;18.00;;;;;5.41;97.19;100477.65;112201;243;161401;-52
2024/03/13 07:58:58;;;;;;;;;27.00;19.33;;;;;5.47;97.18;100475.86;112385;243;38989;-51
2024/03/13 08:01:30;;;;;;;;;29.00;22.00;;;;;5.51;97.27;100475.43;112338;241;162547;-50
2024/03/13 08:04:01;;;;;;;;;22.75;17.00;;;;;5.57;97.12;100476.34;112334;243;39216;-50
2024/03/13 08:06:31;;;;;;;;;25.75;19.50;;;;;5.60;97.10;100477.80;112163;244;42884;-50
2024/03/13 08:09:03;;;;;;;;;25.00;19.25;;;;;5.62;97.09;100477.95;112193;244;160980;-54
2024/03/13 08:11:36;;;;;;;;;34.33;25.33;;;;;5.66;96.95;100474.45;112437;243;39145;-54
2024/03/13 08:14:06;;;;;;;;;32.25;23.50;;;;;5.69;96.92;100479.02;112256;244;160894;-51
2024/03/13 08:16:39;;;;;;;;;30.00;20.00;;;;;5.72;96.61;100482.23;112266;243;40349;-51
2024/03/13 08:19:09;;;;;;;;;29.00;21.00;;;;;5.58;96.88;100484.99;112485;243;40605;-53
2024/03/13 08:21:43;;;;;;;;;25.00;19.00;;;;;5.60;96.82;100484.27;112118;243;161713;-53
2024/03/13 08:24:16;;;;;;;;;25.25;17.00;;;;;5.63;96.70;100488.52;112451;243;40298;-50
2024/03/13 08:26:49;;;;;;;;;24.50;20.00;;;;;5.69;96.80;100481.33;112173;244;161668;-51
2024/03/13 08:29:21;;;;;;;;;28.00;21.00;;;;;5.74;96.74;100483.98;112402;244;40018;-50
2024/03/13 08:31:57;;;;;;;;;30.00;22.00;;;;;5.80;96.85;100488.35;112250;244;161586;-51
2024/03/13 08:34:31;;;;;;;;;30.33;21.33;;;;;5.86;96.88;100491.77;112320;243;39852;-54
2024/03/13 08:37:04;;;;;;;;;32.50;23.00;;;;;5.84;96.81;100490.49;112499;243;39197;-55
2024/03/13 08:39:35;;;;;;;;;25.75;18.75;;;;;5.85;96.72;100493.21;112321;243;161517;-50
2024/03/13 08:42:10;;;;;;;;;21.00;17.00;;;;;5.90;96.73;100495.02;112474;243;39880;-50
2024/03/13 08:44:42;;;;;;;;;31.00;23.25;;;;;5.89;96.72;100497.67;112141;243;161506;-53
2024/03/13 08:47:14;;;;;;;;;32.00;23.50;;;;;5.88;96.76;100499.39;112181;243;39927;-53
2024/03/13 08:49:47;;;;;;;;;20.33;15.00;;;;;5.90;96.83;100503.81;112256;243;162449;-50
2024/03/13 08:52:22;;;;;;;;;27.33;18.00;;;;;5.86;96.53;100506.17;112242;243;38984;-50
2024/03/13 08:54:55;;;;;;;;;27.25;19.00;;;;;5.84;96.54;100508.70;112452;244;39513;-54
2024/03/13 08:57:28;;;;;;;;;26.50;18.75;;;;;5.83;96.51;100507.36;112276;243;161804;-54
2024/03/13 08:59:58;;;;;;;;;27.25;18.75;;;;;5.85;96.58;100507.38;112510;243;39492;-54
2024/03/13 09:02:31;;;;;;;;;24.00;18.50;;;;;5.87;96.56;100508.07;112144;244;161440;-54
2024/03/13 09:05:05;;;;;;;;;26.00;19.75;;;;;5.92;96.37;100513.61;112361;243;39766;-51
2024/03/13 09:07:40;;;;;;;;;26.00;19.00;;;;;6.01;96.14;100516.65;112360;241;161478;-51
2024/03/13 09:10:12;;;;;;;;;34.00;24.67;;;;;6.05;95.98;100516.23;112340;243;41086;-53
2024/03/13 09:12:45;;;;;;;;;22.00;16.33;;;;;6.03;95.85;100514.85;112496;243;40466;-52
2024/03/13 09:15:17;;;;;;;;;29.50;22.25;;;;;6.04;95.95;100516.14;112204;243;160442;-51
2024/03/13 09:17:47;;;;;;;;;19.75;13.50;;;;;6.04;95.85;100512.61;112513;243;40121;-51
2024/03/13 09:20:25;;;;;;;;;19.75;12.50;;;;;6.04;96.01;100509.40;112293;243;161302;-50
2024/03/13 09:22:57;;;;;;;;;23.00;17.00;;;;;6.02;96.18;100512.73;112413;242;39124;-53
2024/03/13 09:25:30;;;;;;;;;24.00;16.00;;;;;6.08;96.10;100511.44;112284;243;161611;-54
2024/03/13 09:28:02;;;;;;;;;24.25;17.25;;;;;6.13;95.96;100515.60;112241;243;40451;-50
2024/03/13 09:30:35;;;;;;;;;22.00;14.00;;;;;6.15;96.05;100517.91;112454;243;40719;-50
2024/03/13 09:33:10;;;;;;;;;25.00;19.00;;;;;6.17;95.95;100520.27;112147;243;161396;-52
2024/03/13 09:35:40;;;;;;;;;31.50;22.00;;;;;6.16;95.82;100524.22;112443;243;40914;-53
2024/03/13 09:38:12;;;;;;;;;31.00;22.00;;;;;6.16;95.86;100523.63;112241;244;160970;-51
2024/03/13 09:40:43;;;;;;;;;27.50;20.25;;;;;6.16;95.95;100527.71;112408;243;39833;-51
2024/03/13 09:43:15;;;;;;;;;19.00;15.00;;;;;6.19;95.99;100530.14;112500;243;40811;-54
2024/03/13 09:45:46;;;;;;;;;21.00;15.00;;;;;6.20;95.71;100534.33;112189;243;39463;-54
2024/03/13 09:48:19;;;;;;;;;26.00;18.33;;;;;6.22;95.75;100538.75;112502;243;40412;-54
2024/03/13 09:50:52;;;;;;;;;22.67;16.00;;;;;6.22;95.62;100539.31;112101;243;161257;-53
2024/03/13 09:53:28;;;;;;;;;22.50;17.00;;;;;6.22;95.64;100540.18;112430;243;39546;-51
2024/03/13 09:55:58;;;;;;;;;25.67;19.00;;;;;6.23;95.59;100545.80;112008;245;161199;-50
2024/03/13 09:58:33;;;;;;;;;21.00;15.00;;;;;6.21;95.60;100549.90;112164;244;39681;-56
2024/03/13 10:01:09;;;;;;;;;20.00;15.00;;;;;6.18;95.84;100549.02;112142;244;41214;-56
2024/03/13 10:03:42;;;;;;;;;26.50;20.75;;;;;6.18;95.86;100548.67;112328;243;160753;-51
2024/03/13 10:06:12;;;;;;;;;24.50;16.50;;;;;6.19;95.70;100549.29;112491;243;39873;-51
2024/03/13 10:08:51;;;;;;;;;26.25;18.50;;;;;6.15;95.76;100551.10;112144;245;161739;-54
2024/03/13 10:11:21;;;;;;;;;20.25;16.00;;;;;6.14;96.01;100554.12;112213;244;41038;-54
2024/03/13 10:13:52;;;;;;;;;25.00;18.33;;;;;6.15;95.84;100552.70;112122;243;161678;-53
2024/03/13 10:16:27;;;;;;;;;22.67;15.67;;;;;6.14;95.79;100551.90;112275;243;39468;-50
2024/03/13 10:18:59;;;;;;;;;21.00;16.00;;;;;6.17;95.59;100551.96;112495;243;40237;-54
2024/03/13 10:21:30;;;;;;;;;25.00;19.00;;;;;6.21;95.61;100551.20;112109;244;161667;-52
2024/03/13 10:24:04;;;;;;;;;32.75;22.50;;;;;6.24;95.57;100555.66;112460;243;41206;-50
2024/03/13 10:26:39;;;;;;;;;23.00;18.00;;;;;6.28;95.36;100555.24;112278;243;161074;-50
2024/03/13 10:29:11;;;;;;;;;30.00;22.67;;;;;6.32;95.14;100554.17;112449;243;39310;-49
2024/03/13 10:31:41;;;;;;;;;35.67;25.33;;;;;6.27;95.03;100555.00;112321;242;161188;-49
2024/03/13 10:34:15;;;;;;;;;21.25;15.75;;;;;6.30;94.89;100555.94;112116;244;42010;-49
2024/03/13 10:36:46;;;;;;;;;20.00;16.00;;;;;6.24;95.10;100557.16;112251;244;39552;-49
2024/03/13 10:39:19;;;;;;;;;22.50;16.50;;;;;6.18;95.36;100556.13;112058;245;161575;-49
2024/03/13 10:41:53;;;;;;;;;26.75;18.25;;;;;6.18;95.23;100557.97;112163;244;40446;-49
2024/03/13 10:44:28;;;;;;;;;28.50;20.00;;;;;6.22;95.32;100560.23;112034;244;161538;-50
2024/03/13 10:46:59;;;;;;;;;28.00;20.00;;;;;6.24;95.27;100562.70;112112;244;40943;-50
2024/03/13 10:49:31;;;;;;;;;30.75;22.25;;;;;6.26;95.34;100559.42;112098;241;161572;-54
2024/03/13 10:52:09;;;;;;;;;26.75;20.50;;;;;6.33;95.18;100559.98;112151;244;39510;-53
2024/03/13 10:54:40;;;;;;;;;27.00;19.00;;;;;6.28;95.35;100556.33;112203;244;39603;-53
2024/03/13 10:57:18;;;;;;;;;20.00;14.00;;;;;6.28;95.36;100557.39;112008;243;161359;-53
2024/03/13 10:59:53;;;;;;;;;21.00;16.00;;;;;6.33;95.27;100557.15;112210;244;40212;-50
2024/03/13 11:02:23;;;;;;;;;23.00;17.00;;;;;6.38;95.45;100559.38;112052;243;161311;-50
2024/03/13 11:04:58;;;;;;;;;23.00;16.00;;;;;6.47;95.50;100561.00;112236;244;40270;-49
2024/03/13 11:07:28;;;;;;;;;23.00;17.00;;;;;6.50;95.52;100555.50;112014;244;162117;-50
2024/03/13 11:09:59;;;;;;;;;23.00;16.00;;;;;6.36;95.11;100558.21;112189;243;40014;-50
2024/03/13 11:12:31;;;;;;;;;26.00;19.00;;;;;6.37;95.37;100552.21;112468;243;40024;-50
2024/03/13 11:15:07;;;;;;;;;28.75;20.50;;;;;6.43;95.32;100549.81;112109;244;161072;-50
2024/03/13 11:17:39;;;;;;;;;27.25;19.25;;;;;6.50;95.20;100548.67;112409;243;39054;-51
2024/03/13 11:20:12;;;;;;;;;22.33;16.00;;;;;6.59;95.11;100550.16;112205;245;162349;-51
2024/03/13 11:22:44;;;;;;;;;25.00;17.25;;;;;6.61;95.04;100548.95;112149;244;39538;-53
2024/03/13 11:25:17;;;;;;;;;18.75;13.25;;;;;6.64;95.04;100547.41;112128;244;39512;-54
2024/03/13 11:27:52;;;;;;;;;24.00;18.75;;;;;6.69;95.05;100545.09;112248;244;39532;-51
2024/03/13 11:30:25;;;;;;;;;21.25;16.00;;;;;6.67;95.44;100544.98;112148;244;39647;-50
2024/03/13 11:32:59;;;;;;;;;24.50;17.50;;;;;6.69;95.34;100539.60;112003;244;161201;-52
2024/03/13 11:35:34;;;;;;;;;25.75;19.50;;;;;6.73;95.06;100538.09;112422;243;38987;-52
2024/03/13 11:38:05;;;;;;;;;29.00;22.00;;;;;6.69;94.68;100536.65;112280;244;161287;-52
2024/03/13 11:40:36;;;;;;;;;34.50;25.00;;;;;6.64;94.64;100542.58;112169;244;39823;-53
2024/03/13 11:43:09;;;;;;;;;41.00;29.00;;;;;6.60;94.65;100542.15;112154;244;39953;-49
2024/03/13 11:45:43;;;;;;;;;36.25;25.75;;;;;6.60;94.40;100542.52;112262;243;160907;-49
2024/03/13 11:48:16;;;;;;;;;24.67;19.00;;;;;6.57;94.22;100541.55;112452;243;39104;-50
2024/03/13 11:51:10;;;;;;;;;21.50;14.75;;;;;6.58;94.00;100541.27;112116;243;162125;-50
2024/03/13 11:53:45;;;;;;;;;22.00;17.00;;;;;6.61;93.94;100540.11;112444;243;39792;-55
2024/03/13 11:56:21;;;;;;;;;32.00;22.00;;;;;6.60;93.84;100540.16;112266;243;161536;-53
2024/03/13 11:58:52;;;;;;;;;35.00;26.25;;;;;6.59;93.86;100538.46;112219;244;40322;-53
2024/03/13 12:01:23;;;;;;;;;27.33;19.67;;;;;6.57;93.73;100538.48;112251;244;39927;-53
2024/03/13 12:03:55;;;;;;;;;42.33;28.67;;;;;6.64;93.55;100534.58;112469;243;39195;-53
2024/03/13 12:06:37;;;;;;;;;47.00;32.00;;;;;6.65;93.61;100537.88;112473;243;39965;-54